Data for 12/17/2006

Time Sea-Level Adjusted Pressure Absolute Pressure Temperature Relative Humidity Dew Point   
(mb) (inHg) (mb) (inHg) (C) (F) (%) (C) (F)
00:05 1018 30.06 847 25.01 -11.4 11.5 55 -18.7 -1.7
00:10 1018 30.06 847 25.01 -12 10.5 57 -18.9 -2.1
00:15 1018 30.06 847 25.01 -12.2 10.1 56 -19.2 -2.5
00:20 1018 30.06 847 25.01 -11.9 10.6 55 -19.3 -2.7
00:25 1018 30.06 847 25.01 -11.8 10.8 55 -19.1 -2.5
00:30 1018 30.06 847 25.01 -11.8 10.8 54 -19.2 -2.6
00:35 1018 30.06 847 25.01 -11.7 10.9 54 -19.2 -2.6
00:40 1018 30.06 847 25.01 -11.6 11.1 53 -19.4 -2.9
00:45 1018 30.06 847 25.01 -11.5 11.3 51 -19.6 -3.3
00:50 1018 30.06 847 25.01 -11.3 11.6 52 -19.4 -3
00:55 1017 30.03 847 25.01 -11.6 11.1 52 -19.5 -3.2
01:00 1017 30.03 847 25.01 -12 10.5 53 -19.7 -3.4
01:05 1017 30.03 847 25.01 -12.1 10.3 53 -19.8 -3.6
01:10 1017 30.03 847 25.01 -12 10.4 53 -19.8 -3.6
01:15 1018 30.06 847 25.01 -11.9 10.6 53 -19.7 -3.5
01:20 1018 30.06 847 25.01 -11.8 10.8 52 -19.8 -3.6
01:25 1018 30.06 847 25.01 -11.8 10.8 52 -19.7 -3.5
01:30 1018 30.06 847 25.01 -11.8 10.8 52 -19.7 -3.5
01:35 1018 30.06 847 25.01 -11.4 11.5 49 -20.1 -4.1
01:40 1018 30.06 847 25.01 -10.8 12.5 48 -19.9 -3.9
01:45 1018 30.06 847 25.01 -11 12.2 49 -19.8 -3.7
01:50 1018 30.06 847 25.01 -11 12.2 47 -20.3 -4.6
01:55 1018 30.06 847 25.01 -10.7 12.8 46 -20.3 -4.5
02:00 1018 30.06 847 25.01 -10.8 12.5 46 -20.2 -4.4
02:05 1018 30.06 847 25.01 -11 12.2 47 -20.3 -4.6
02:10 1018 30.06 847 25.01 -11.1 12.1 47 -20.3 -4.5
02:15 1018 30.06 847 25.01 -11.4 11.5 49 -20 -4.1
02:20 1018 30.06 847 25.01 -11.5 11.3 49 -20.3 -4.6
02:25 1018 30.06 847 25.01 -11.4 11.6 48 -20.2 -4.4
02:30 1018 30.06 847 25.01 -11.4 11.6 48 -20.2 -4.4
02:35 1018 30.06 847 25.01 -11.6 11.1 52 -19.6 -3.3
02:40 1018 30.06 847 25.01 -12.1 10.3 54 -19.7 -3.4
02:45 1018 30.06 847 25.01 -12.4 9.6 54 -20 -4
02:50 1018 30.06 847 25.01 -12.3 9.9 55 -19.6 -3.3
02:55 1018 30.06 847 25.01 -12.5 9.4 55 -19.9 -3.8
03:00 1018 30.06 847 25.01 -12.8 8.9 56 -19.9 -3.8
03:05 1018 30.06 847 25.01 -13.5 7.8 59 -19.9 -3.9
03:10 1018 30.06 847 25.01 -13.8 7.1 59 -20.1 -4.3
03:15 1018 30.06 847 25.01 -13.9 6.9 60 -20.1 -4.3
03:20 1018 30.06 847 25.01 -13.9 7.1 59 -20.2 -4.4
03:25 1018 30.06 847 25.01 -14 6.9 59 -20.3 -4.5
03:30 1018 30.06 847 25.01 -14.2 6.4 61 -20.2 -4.3
03:35 1018 30.06 847 25.01 -14.1 6.7 60 -20.3 -4.6
03:40 1018 30.06 847 25.01 -13.8 7.2 58 -20.3 -4.6
03:45 1018 30.06 847 25.01 -13.7 7.3 58 -20.3 -4.5
03:50 1018 30.06 847 25.01 -13.9 6.9 59 -20.4 -4.6
03:55 1018 30.06 847 25.01 -14.1 6.7 60 -20.3 -4.6
04:00 1018 30.06 847 25.01 -14.1 6.7 59 -20.5 -4.9
04:05 1018 30.06 847 25.01 -14.1 6.7 59 -20.4 -4.8
04:10 1018 30.06 847 25.01 -13.8 7.1 58 -20.5 -4.9
04:15 1018 30.06 847 25.01 -13.6 7.5 57 -20.3 -4.6
04:20 1018 30.06 847 25.01 -13.7 7.4 57 -20.5 -5
04:25 1018 30.06 847 25.01 -13.7 7.4 57 -20.5 -4.9
04:30 1018 30.06 847 25.01 -13.4 7.9 56 -20.5 -4.9
04:35 1018 30.06 847 25.01 -13.4 7.9 56 -20.4 -4.8
04:40 1018 30.06 847 25.01 -13.3 8.1 56 -20.4 -4.7
04:45 1018 30.06 847 25.01 -13.3 8.1 54 -20.7 -5.3
04:50 1018 30.06 847 25.01 -13.2 8.2 54 -20.8 -5.4
04:55 1018 30.06 847 25.01 -13.3 8 55 -20.6 -5.2
05:00 1018 30.06 847 25.01 -13.5 7.8 55 -20.8 -5.4
05:05 1018 30.06 847 25.01 -13.6 7.6 55 -20.7 -5.3
05:10 1018 30.06 847 25.01 -13.7 7.3 56 -20.8 -5.4
05:15 1018 30.06 847 25.01 -13.8 7.3 56 -20.8 -5.4
05:20 1018 30.06 847 25.01 -13.9 6.9 57 -20.8 -5.5
05:25 1018 30.06 847 25.01 -13.9 6.9 56 -21 -5.8
05:30 1018 30.06 847 25.01 -13.9 7 56 -21 -5.7
05:35 1018 30.06 847 25.01 -13.5 7.6 56 -20.6 -5
05:40 1018 30.06 847 25.01 -13.4 7.8 56 -20.4 -4.8
05:45 1018 30.06 847 25.01 -13.6 7.6 56 -20.7 -5.2
05:50 1018 30.06 847 25.01 -13.3 8 54 -20.8 -5.4
05:55 1018 30.06 847 25.01 -13.4 7.9 54 -21 -5.7
06:00 1018 30.06 847 25.01 -13.3 8 54 -20.8 -5.4
06:05 1018 30.06 847 25.01 -13.7 7.3 55 -20.8 -5.5
06:10 1018 30.06 847 25.01 -13.9 6.9 56 -20.9 -5.6
06:15 1018 30.06 847 25.01 -14 6.8 56 -20.9 -5.6
06:20 1018 30.06 847 25.01 -14.1 6.6 57 -20.9 -5.6
06:25 1018 30.06 847 25.01 -14.2 6.5 58 -20.8 -5.5
06:30 1018 30.06 847 25.01 -14.2 6.4 58 -20.8 -5.5
06:35 1018 30.06 847 25.01 -14.2 6.4 58 -20.9 -5.6
06:40 1018 30.06 847 25.01 -14.3 6.3 58 -20.9 -5.6
06:45 1018 30.06 847 25.01 -14.2 6.4 58 -20.9 -5.6
06:50 1018 30.06 847 25.01 -14.2 6.4 58 -20.8 -5.5
06:55 1018 30.06 847 25.01 -14.5 5.9 58 -21 -5.8
07:00 1018 30.06 847 25.01 -14.5 5.9 58 -21 -5.9
07:05 1018 30.06 847 25.01 -14.2 6.4 57 -21 -5.8
07:10 1018 30.06 847 25.01 -13.7 7.4 54 -21 -5.8
07:15 1018 30.06 847 25.01 -13.6 7.6 54 -20.9 -5.7
07:20 1018 30.06 847 25.01 -13.5 7.6 53 -21.1 -6
07:25 1018 30.06 847 25.01 -13.7 7.4 54 -21 -5.8
07:30 1018 30.06 847 25.01 -13.8 7.1 56 -20.9 -5.6
07:35 1018 30.06 848 25.04 -14.2 6.4 57 -21 -5.8
07:40 1018 30.06 848 25.04 -14.4 6 59 -20.8 -5.4
07:45 1018 30.06 848 25.04 -14.4 6.2 59 -20.8 -5.4
07:50 1018 30.06 848 25.04 -14.4 6.2 57 -21 -5.9
07:55 1018 30.06 848 25.04 -14.5 6 59 -20.8 -5.4
08:00 1019 30.09 848 25.04 -14.8 5.4 60 -20.9 -5.6
08:05 1019 30.09 848 25.04 -15.5 4.2 62 -21.2 -6.1
08:10 1019 30.09 848 25.04 -15.5 4.1 63 -21 -5.9
08:15 1019 30.09 848 25.04 -15.6 4 63 -21 -5.9
08:20 1019 30.09 848 25.04 -15.6 4 63 -21 -5.9
08:25 1019 30.09 848 25.04 -15.4 4.4 64 -20.7 -5.2
08:30 1019 30.09 848 25.04 -15.2 4.7 62 -21 -5.8
08:35 1019 30.09 848 25.04 -14.8 5.4 58 -21.3 -6.4
08:40 1019 30.09 848 25.04 -14.4 6 57 -21.3 -6.3
08:45 1019 30.09 848 25.04 -14 6.8 56 -21.1 -6
08:50 1019 30.09 849 25.07 -13.4 7.9 52 -21.2 -6.1
08:55 1019 30.09 849 25.07 -12.9 8.7 53 -20.6 -5.1
09:00 1019 30.09 849 25.07 -13.2 8.3 54 -20.8 -5.4
09:05 1020 30.12 849 25.07 -13.3 8 55 -20.6 -5.2
09:10 1020 30.12 849 25.07 -13.5 7.7 56 -20.5 -5
09:15 1020 30.12 849 25.07 -13.3 8.1 56 -20.3 -4.5
09:20 1020 30.12 849 25.07 -12.9 8.7 54 -20.5 -4.8
09:25 1020 30.12 849 25.07 -13 8.6 53 -20.7 -5.2
09:30 1020 30.12 849 25.07 -12.6 9.3 51 -20.7 -5.3
09:35 1020 30.12 849 25.07 -12 10.4 51 -20.2 -4.4
09:40 1020 30.12 849 25.07 -11.8 10.9 49 -20.4 -4.6
09:45 1020 30.12 849 25.07 -11.9 10.6 49 -20.7 -5.2
09:50 1020 30.12 849 25.07 -11.6 11.2 48 -20.5 -5
09:55 1020 30.12 849 25.07 -10.6 12.8 46 -20.3 -4.5
10:00 1020 30.12 849 25.07 -10.6 13 45 -20.2 -4.4
10:05 1020 30.12 849 25.07 -10.2 13.6 45 -20.2 -4.3
10:10 1020 30.12 849 25.07 -9.8 14.3 41 -20.7 -5.3
10:15 1020 30.12 849 25.07 -9.2 15.4 40 -20.5 -4.9
10:20 1020 30.12 849 25.07 -8.7 16.4 38 -20.5 -4.8
10:25 1020 30.12 849 25.07 -8.4 16.8 39 -20.2 -4.4
10:30 1020 30.12 849 25.07 -7.8 18.1 36 -20.6 -5
10:35 1020 30.12 849 25.07 -7.5 18.6 34 -20.7 -5.3
10:40 1020 30.12 849 25.07 -7.3 18.8 35 -20.4 -4.8
10:45 1020 30.12 849 25.07 -7.3 18.8 35 -20.2 -4.4
10:50 1020 30.12 849 25.07 -7.4 18.6 36 -20.3 -4.5
10:55 1020 30.12 849 25.07 -7.4 18.6 37 -19.8 -3.7
11:00 1020 30.12 849 25.07 -7.8 18 39 -19.6 -3.2
11:05 1020 30.12 849 25.07 -7.6 18.4 38 -19.5 -3.1
11:10 1020 30.12 849 25.07 -7.4 18.7 38 -19.5 -3.1
11:15 1019 30.09 849 25.07 -7.6 18.3 39 -19.4 -3
11:20 1019 30.09 849 25.07 -7.6 18.4 38 -19.6 -3.3
11:25 1019 30.09 849 25.07 -7.3 18.9 37 -19.6 -3.3
11:30 1019 30.09 849 25.07 -7.3 19 37 -19.5 -3.1
11:35 1019 30.09 849 25.07 -7.3 18.9 38 -19.3 -2.7
11:40 1019 30.09 848 25.04 -6.9 19.5 38 -19.1 -2.5
11:45 1019 30.09 848 25.04 -6.6 20.2 36 -19.3 -2.8
11:50 1019 30.09 848 25.04 -6.6 20.2 38 -18.6 -1.6
11:55 1019 30.09 848 25.04 -6.5 20.4 38 -18.7 -1.6
12:00 1019 30.09 848 25.04 -6.1 21 34 -19.4 -3
12:05 1019 30.09 848 25.04 -6.3 20.6 34 -19.6 -3.3
12:10 1019 30.09 848 25.04 -6.4 20.5 38 -18.5 -1.2
12:15 1019 30.09 848 25.04 -6.7 20 35 -19.7 -3.5
12:20 1019 30.09 848 25.04 -5.8 21.5 33 -19.8 -3.6
12:25 1019 30.09 848 25.04 -6.4 20.5 39 -18.1 -0.6
12:30 1019 30.09 848 25.04 -6.2 20.8 37 -18.8 -1.8
12:35 1019 30.09 848 25.04 -6.6 20.1 39 -18.5 -1.2
12:40 1019 30.09 848 25.04 -5.9 21.4 36 -18.8 -1.8
12:45 1019 30.09 848 25.04 -5 22.9 34 -18.5 -1.4
12:50 1019 30.09 848 25.04 -4.9 23.2 34 -18.4 -1.1
12:55 1019 30.09 848 25.04 -4.9 23.2 35 -18 -0.4
13:00 1019 30.09 848 25.04 -4.7 23.6 34 -18.2 -0.8
13:05 1019 30.09 848 25.04 -5.2 22.7 38 -17.5 0.5
13:10 1019 30.09 848 25.04 -5.1 22.9 35 -18.3 -1
13:15 1019 30.09 848 25.04 -6.2 20.9 41 -17.5 0.5
13:20 1018 30.06 848 25.04 -6.5 20.2 40 -17.9 -0.2
13:25 1018 30.06 848 25.04 -6.2 20.9 39 -18.2 -0.7
13:30 1018 30.06 848 25.04 -5.2 22.6 36 -18.1 -0.6
13:35 1018 30.06 848 25.04 -5 23 36 -17.9 -0.3
13:40 1018 30.06 848 25.04 -5 23.1 36 -18 -0.4
13:45 1018 30.06 848 25.04 -5.1 22.9 36 -18 -0.4
13:50 1018 30.06 848 25.04 -5.4 22.2 36 -18.3 -0.9
13:55 1018 30.06 848 25.04 -5.1 22.8 35 -18.5 -1.3
14:00 1018 30.06 848 25.04 -5.3 22.5 35 -18.5 -1.3
14:05 1018 30.06 848 25.04 -5 23 34 -18.6 -1.5
14:10 1018 30.06 848 25.04 -5 23 34 -18.7 -1.6
14:15 1018 30.06 848 25.04 -5.1 22.8 33 -18.9 -2
14:20 1018 30.06 848 25.04 -5.1 22.9 33 -18.9 -2
14:25 1018 30.06 847 25.01 -5.2 22.6 34 -18.9 -2.1
14:30 1018 30.06 848 25.04 -5.5 22.1 35 -18.8 -1.8
14:35 1018 30.06 847 25.01 -5.6 21.9 35 -18.9 -2.1
14:40 1018 30.06 847 25.01 -6 21.3 35 -19.2 -2.5
14:45 1018 30.06 847 25.01 -5.9 21.4 35 -19 -2.2
14:50 1018 30.06 848 25.04 -5.6 21.9 34 -19 -2.1
14:55 1018 30.06 848 25.04 -5.4 22.2 33 -19.2 -2.5
15:00 1018 30.06 848 25.04 -5.5 22.1 34 -19.1 -2.4
15:05 1018 30.06 848 25.04 -6.1 20.9 35 -19.3 -2.7
15:10 1018 30.06 848 25.04 -5.5 22.1 33 -19.3 -2.8
15:15 1018 30.06 848 25.04 -5.1 22.8 32 -19.3 -2.8
15:20 1018 30.06 848 25.04 -4.8 23.3 32 -19.3 -2.7
15:25 1019 30.09 848 25.04 -5 23 33 -19 -2.2
15:30 1018 30.06 848 25.04 -5.1 22.8 35 -18.2 -0.8
15:35 1019 30.09 848 25.04 -5.2 22.6 35 -18.3 -0.9
15:40 1019 30.09 848 25.04 -5.4 22.3 36 -18.2 -0.7
15:45 1019 30.09 848 25.04 -6.1 21.1 40 -17.6 0.2
15:50 1019 30.09 848 25.04 -6.9 19.7 42 -17.9 -0.2
15:55 1019 30.09 848 25.04 -6.7 19.9 41 -18 -0.4
16:00 1019 30.09 848 25.04 -7.1 19.3 43 -17.6 0.3
16:05 1019 30.09 848 25.04 -6.9 19.6 42 -17.7 0.1
16:10 1019 30.09 848 25.04 -6.7 19.9 39 -18.5 -1.2
16:15 1019 30.09 848 25.04 -6.6 20.2 36 -19.3 -2.7
16:20 1019 30.09 848 25.04 -6.7 20 40 -18.1 -0.6
16:25 1019 30.09 848 25.04 -6.6 20.1 38 -18.6 -1.4
16:30 1019 30.09 848 25.04 -7.7 18.2 41 -18.9 -2
16:35 1019 30.09 848 25.04 -8 17.6 41 -19.1 -2.4
16:40 1019 30.09 848 25.04 -8.1 17.5 40 -19.6 -3.3
16:45 1019 30.09 848 25.04 -8.3 17.1 43 -18.9 -2
16:50 1019 30.09 848 25.04 -8.9 16.1 48 -18.1 -0.5
16:55 1019 30.09 848 25.04 -9.2 15.4 50 -17.9 -0.3
17:00 1019 30.09 848 25.04 -9.4 15 51 -17.9 -0.2
17:05 1019 30.09 848 25.04 -9.7 14.6 52 -17.7 0.1
17:10 1019 30.09 848 25.04 -9.8 14.4 52 -17.8 -0.1
17:15 1019 30.09 848 25.04 -9.9 14.3 53 -17.8 -0
17:20 1019 30.09 848 25.04 -10.1 13.8 53 -18 -0.3
17:25 1019 30.09 848 25.04 -10 14 52 -18 -0.5
17:30 1019 30.09 848 25.04 -9.8 14.4 52 -17.9 -0.3
17:35 1019 30.09 848 25.04 -9.8 14.5 53 -17.7 0.2
17:40 1019 30.09 848 25.04 -9.8 14.4 53 -17.7 0.1
17:45 1019 30.09 848 25.04 -9.8 14.4 52 -17.9 -0.1
17:50 1019 30.09 848 25.04 -10 14.1 53 -17.8 -0
17:55 1019 30.09 848 25.04 -10.3 13.6 55 -17.6 0.3
18:00 1019 30.09 848 25.04 -10.9 12.3 58 -17.8 0
18:05 1019 30.09 848 25.04 -11 12.2 59 -17.6 0.3
18:10 1019 30.09 848 25.04 -11.4 11.5 58 -18 -0.5
18:15 1019 30.09 848 25.04 -11.1 12.1 57 -18 -0.4
18:20 1019 30.09 848 25.04 -10.4 13.4 53 -18.2 -0.7
18:25 1019 30.09 848 25.04 -9.9 14.3 51 -18.1 -0.6
18:30 1019 30.09 849 25.07 -10.3 13.6 54 -18 -0.4
18:35 1019 30.09 849 25.07 -10.9 12.4 58 -17.5 0.4
18:40 1019 30.09 849 25.07 -11.6 11.2 60 -17.8 -0
18:45 1019 30.09 849 25.07 -12.1 10.2 62 -17.9 -0.2
18:50 1019 30.09 849 25.07 -12.3 9.8 64 -17.9 -0.2
18:55 1020 30.12 849 25.07 -12.3 9.8 64 -17.9 -0.2
19:00 1020 30.12 849 25.07 -12.2 10 63 -18 -0.3
19:05 1020 30.12 849 25.07 -12 10.5 62 -17.8 -0
19:10 1020 30.12 849 25.07 -12 10.3 63 -17.8 -0.1
19:15 1020 30.12 849 25.07 -12.5 9.6 64 -17.9 -0.3
19:20 1020 30.12 849 25.07 -11.8 10.8 60 -18 -0.4
19:25 1020 30.12 849 25.07 -11.6 11 60 -17.9 -0.3
19:30 1020 30.12 849 25.07 -12.1 10.2 60 -18.4 -1.1
19:35 1020 30.12 849 25.07 -11.9 10.6 60 -18.2 -0.7
19:40 1020 30.12 849 25.07 -11.7 11 60 -17.9 -0.2
19:45 1020 30.12 849 25.07 -11.5 11.3 57 -18.4 -1.2
19:50 1020 30.12 850 25.1 -11.2 11.8 56 -18.4 -1.1
19:55 1020 30.12 850 25.1 -11.6 11.1 60 -18 -0.4
20:00 1020 30.12 850 25.1 -11.8 10.8 60 -18.1 -0.6
20:05 1021 30.15 850 25.1 -11.8 10.7 62 -17.8 -0.1
20:10 1021 30.15 850 25.1 -12.5 9.6 63 -18.2 -0.7
20:15 1021 30.15 850 25.1 -12.9 8.8 66 -18 -0.3
20:20 1021 30.15 850 25.1 -13 8.6 65 -18.3 -1
20:25 1021 30.15 850 25.1 -13.6 7.5 67 -18.5 -1.4
20:30 1021 30.15 850 25.1 -13.9 7 69 -18.4 -1.1
20:35 1021 30.15 850 25.1 -13.7 7.4 67 -18.5 -1.3
20:40 1021 30.15 850 25.1 -13.7 7.3 67 -18.7 -1.6
20:45 1021 30.15 850 25.1 -13.4 7.9 65 -18.6 -1.5
20:50 1021 30.15 850 25.1 -13.4 7.8 66 -18.6 -1.4
20:55 1021 30.15 850 25.1 -13.2 8.2 65 -18.6 -1.4
21:00 1021 30.15 850 25.1 -12.9 8.7 64 -18.4 -1.2
21:05 1021 30.15 850 25.1 -12.7 9.2 60 -18.9 -2
21:10 1021 30.15 851 25.13 -12.3 9.9 58 -19 -2.2
21:15 1021 30.15 851 25.13 -12.3 9.9 57 -19.1 -2.4
21:20 1021 30.15 851 25.13 -12.3 9.9 57 -19.2 -2.5
21:25 1021 30.15 851 25.13 -11.9 10.6 55 -19.1 -2.4
21:30 1021 30.15 851 25.13 -12.1 10.2 56 -19.2 -2.5
21:35 1021 30.15 851 25.13 -12.4 9.7 57 -19.2 -2.6
21:40 1022 30.18 851 25.13 -12.4 9.7 57 -19.2 -2.6
21:45 1022 30.18 851 25.13 -12.5 9.5 57 -19.3 -2.7
21:50 1022 30.18 851 25.13 -12.2 10 56 -19.3 -2.7
21:55 1022 30.18 851 25.13 -12.1 10.2 57 -19 -2.2
22:00 1022 30.18 851 25.13 -12.2 10.1 57 -19 -2.2
22:05 1022 30.18 851 25.13 -12.3 9.9 59 -18.7 -1.6
22:10 1022 30.18 851 25.13 -12.5 9.6 61 -18.4 -1.2
22:15 1022 30.18 851 25.13 -12.7 9.2 63 -18.3 -1
22:20 1022 30.18 851 25.13 -12.8 9 64 -18.3 -0.9
22:25 1022 30.18 851 25.13 -12.8 9.1 63 -18.4 -1.2
22:30 1022 30.18 851 25.13 -12.6 9.4 61 -18.7 -1.6
22:35 1022 30.18 851 25.13 -12.4 9.7 59 -18.8 -1.8
22:40 1022 30.18 851 25.13 -12.3 9.9 59 -18.7 -1.7
22:45 1022 30.18 851 25.13 -12.1 10.2 58 -18.7 -1.7
22:50 1022 30.18 851 25.13 -12.1 10.2 59 -18.5 -1.4
22:55 1022 30.18 851 25.13 -12.2 10 58 -18.8 -1.9
23:00 1022 30.18 851 25.13 -12.4 9.8 60 -18.5 -1.4
23:05 1022 30.18 852 25.16 -12.5 9.6 61 -18.4 -1.2
23:10 1022 30.18 852 25.16 -12.6 9.2 62 -18.5 -1.4
23:15 1022 30.18 852 25.16 -12.7 9.1 62 -18.5 -1.3
23:20 1022 30.18 852 25.16 -12.4 9.7 62 -18.3 -1
23:25 1022 30.18 852 25.16 -12.6 9.4 62 -18.5 -1.3
23:30 1022 30.18 852 25.16 -12.7 9.1 60 -19 -2.1
23:35 1022 30.18 852 25.16 -12.4 9.6 58 -19 -2.3
23:40 1023 30.21 852 25.16 -12.1 10.3 57 -19 -2.1
23:45 1023 30.21 852 25.16 -11.7 11 55 -19.1 -2.3
23:50 1022 30.18 852 25.16 -11.4 11.5 54 -19 -2.2
23:55 1022 30.18 852 25.16 -11.6 11.2 56 -18.8 -1.8
24:00 1023 30.21 852 25.16 -12.1 10.3 58 -18.7 -1.6